Time;durP1;ratioP1;P1;durP2;ratioP2;P2;SDS_P1;SDS_P2;PMS_P1;PMS_P2;Temp;Humidity;BMP_temperature;BMP_pressure;BME280_temperature;BME280_humidity;BME280_pressure;Samples;Min_cycle;Max_cycle;Signal;HPM_P1;HPM_P2
2024/02/09 05:50:19;;;;;;;10.60;8.20;;;;;;;1.75;100.00;98920.63;110227;1276;22963;-50
2024/02/09 05:52:59;;;;;;;13.00;7.70;;;;;;;1.72;100.00;98914.58;110105;1271;23265;-53
2024/02/09 05:55:26;;;;;;;11.30;7.50;;;;;;;1.73;100.00;98911.14;110226;1259;22432;-53
2024/02/09 05:57:55;;;;;;;12.10;8.30;;;;;;;1.74;100.00;98900.52;109851;1260;22450;-47
2024/02/09 06:00:23;;;;;;;10.10;7.60;;;;;;;1.78;100.00;98895.23;110252;1270;22934;-48
2024/02/09 06:02:53;;;;;;;16.00;8.90;;;;;;;1.81;100.00;98881.17;109225;1275;22505;-50
2024/02/09 06:05:20;;;;;;;12.70;8.60;;;;;;;1.81;100.00;98878.27;110259;1273;22781;-53
2024/02/09 06:07:48;;;;;;;11.80;8.40;;;;;;;1.81;100.00;98875.16;110262;1275;22355;-53
2024/02/09 06:10:16;;;;;;;15.80;8.30;;;;;;;1.82;100.00;98875.52;110305;1260;23193;-48
2024/02/09 06:12:44;;;;;;;12.00;7.60;;;;;;;1.87;100.00;98874.71;109305;1275;22341;-47
2024/02/09 06:15:12;;;;;;;15.20;8.70;;;;;;;1.91;100.00;98873.19;109372;1275;22450;-52
2024/02/09 06:17:42;;;;;;;15.50;8.90;;;;;;;1.92;100.00;98873.21;109302;1275;22407;-48
2024/02/09 06:20:19;;;;;;;18.40;9.30;;;;;;;1.92;100.00;98870.13;108744;1270;23652;-52
2024/02/09 06:23:12;;;;;;;14.70;9.10;;;;;;;1.91;100.00;98861.52;109635;1268;22536;-53
2024/02/09 06:25:56;;;;;;;15.60;9.20;;;;;;;1.90;100.00;98857.70;108975;1275;23121;-47
2024/02/09 06:37:18;;;;;;;12.60;8.00;;;;;;;1.95;100.00;98855.54;109339;1267;23347;-47
2024/02/09 06:40:42;;;;;;;12.50;6.80;;;;;;;1.93;100.00;98856.55;106093;1274;5214908;-47
2024/02/09 06:43:53;;;;;;;14.10;7.10;;;;;;;1.91;100.00;98854.63;109998;1269;22451;-53
2024/02/09 06:47:04;;;;;;;9.40;6.20;;;;;;;1.91;100.00;98860.99;110054;1270;23088;-52
2024/02/09 06:49:37;;;;;;;9.20;5.30;;;;;;;1.90;100.00;98858.41;109578;1269;22451;-52
2024/02/09 06:52:05;;;;;;;8.60;5.80;;;;;;;1.93;100.00;98861.38;110105;1275;23567;-48
2024/02/09 06:54:34;;;;;;;15.10;8.30;;;;;;;1.97;100.00;98858.32;110117;1269;22337;-52
2024/02/09 06:57:01;;;;;;;19.00;11.00;;;;;;;2.01;100.00;98851.66;110006;1267;23344;-46
2024/02/09 06:59:29;;;;;;;15.60;9.30;;;;;;;2.06;100.00;98846.04;110144;1271;23013;-47
2024/02/09 07:02:04;;;;;;;17.80;8.40;;;;;;;2.09;100.00;98843.31;109333;1275;25485;-47
2024/02/09 07:04:36;;;;;;;10.10;5.50;;;;;;;2.12;100.00;98848.34;109696;1272;22537;-53
2024/02/09 07:07:08;;;;;;;7.00;4.70;;;;;;;2.15;100.00;98856.98;110248;1259;22271;-52
2024/02/09 07:09:36;;;;;;;12.10;6.60;;;;;;;2.16;100.00;98860.60;110230;1275;22394;-52
2024/02/09 07:12:07;;;;;;;9.20;5.80;;;;;;;2.20;100.00;98860.28;110000;1270;22610;-53
2024/02/09 07:14:36;;;;;;;9.50;6.00;;;;;;;2.26;100.00;98867.92;109667;1273;22391;-47
2024/02/09 07:17:04;;;;;;;16.20;8.10;;;;;;;2.30;100.00;98866.75;109438;1272;23212;-47
2024/02/09 07:19:35;;;;;;;8.70;5.40;;;;;;;2.33;100.00;98865.27;109452;1275;22310;-54
2024/02/09 07:22:04;;;;;;;;;;;;;;;2.36;100.00;98867.51;109021;1273;22501;-52
2024/02/09 07:24:32;;;;;;;7.30;5.10;;;;;;;2.37;100.00;98859.61;109313;1264;22592;-47
2024/02/09 07:27:00;;;;;;;8.40;5.40;;;;;;;2.41;100.00;98854.14;109559;1275;22602;-48
2024/02/09 07:29:28;;;;;;;13.50;5.90;;;;;;;2.46;100.00;98860.39;109603;1273;23205;-51
2024/02/09 07:31:56;;;;;;;12.60;7.50;;;;;;;2.51;100.00;98859.73;109493;1270;22454;-47
2024/02/09 07:34:26;;;;;;;7.20;5.40;;;;;;;2.59;100.00;98870.66;109404;1270;22410;-48
2024/02/09 07:36:54;;;;;;;6.70;4.20;;;;;;;2.63;100.00;98868.46;110026;1260;22386;-50
2024/02/09 07:39:24;;;;;;;8.30;5.00;;;;;;;2.60;100.00;98858.45;109825;1270;22406;-52
2024/02/09 07:41:54;;;;;;;9.10;5.20;;;;;;;2.55;100.00;98849.79;109829;1260;22367;-47
2024/02/09 07:44:22;;;;;;;8.40;4.50;;;;;;;2.54;100.00;98854.42;109881;1271;23002;-48
2024/02/09 07:46:49;;;;;;;8.10;5.40;;;;;;;2.53;100.00;98853.21;109840;1275;22522;-51
2024/02/09 07:49:19;;;;;;;8.70;5.20;;;;;;;2.55;100.00;98848.07;109559;1260;22460;-49
2024/02/09 07:51:48;;;;;;;10.80;5.60;;;;;;;2.57;100.00;98846.71;109526;1270;23403;-50
2024/02/09 07:54:17;;;;;;;10.50;6.20;;;;;;;2.57;100.00;98855.16;110125;1264;22353;-53
2024/02/09 07:56:44;;;;;;;6.80;5.50;;;;;;;2.58;100.00;98852.75;109831;1276;25500;-50
2024/02/09 07:59:12;;;;;;;6.60;5.20;;;;;;;2.61;100.00;98854.16;109870;1268;22954;-51
2024/02/09 08:01:40;;;;;;;6.80;5.00;;;;;;;2.59;100.00;98856.71;109813;1259;22833;-47
2024/02/09 08:04:11;;;;;;;8.00;5.80;;;;;;;2.59;100.00;98854.48;109514;1271;22237;-45
2024/02/09 08:06:39;;;;;;;10.20;5.20;;;;;;;2.57;100.00;98846.73;109668;1270;22572;-49
2024/02/09 08:09:07;;;;;;;8.50;5.70;;;;;;;2.56;100.00;98841.90;109981;1269;22401;-51
2024/02/09 08:15:14;;;;;;;7.50;5.30;;;;;;;2.56;100.00;98840.69;109301;1269;22564;-50
2024/02/09 08:17:52;;;;;;;7.50;5.40;;;;;;;2.55;100.00;98845.51;109582;1273;22631;-48
2024/02/09 08:20:22;;;;;;;8.40;6.10;;;;;;;2.56;100.00;98837.77;109294;1270;22307;-51
2024/02/09 08:22:53;;;;;;;9.10;6.40;;;;;;;2.56;100.00;98837.25;108961;1270;22537;-48
2024/02/09 08:25:21;;;;;;;8.70;6.20;;;;;;;2.58;100.00;98834.16;109409;1276;22997;-47
2024/02/09 08:27:49;;;;;;;9.30;6.70;;;;;;;2.61;100.00;98827.48;109915;1276;22306;-48
2024/02/09 08:30:17;;;;;;;9.50;5.60;;;;;;;2.63;100.00;98826.98;109597;1270;22444;-51
2024/02/09 08:32:44;;;;;;;9.40;6.00;;;;;;;2.65;100.00;98826.98;109960;1270;23182;-48
2024/02/09 08:35:12;;;;;;;11.70;6.80;;;;;;;2.67;100.00;98818.91;109690;1276;22875;-52
2024/02/09 08:37:40;;;;;;;8.00;5.70;;;;;;;2.70;100.00;98812.73;109945;1269;22424;-51
2024/02/09 08:40:08;;;;;;;9.80;6.90;;;;;;;2.74;100.00;98812.77;110073;1270;22330;-51
2024/02/09 08:42:38;;;;;;;10.90;7.20;;;;;;;2.79;100.00;98812.98;109755;1270;22522;-50
2024/02/09 08:45:06;;;;;;;9.60;6.80;;;;;;;2.80;100.00;98813.33;109788;1267;23243;-47
2024/02/09 08:47:37;;;;;;;10.80;6.70;;;;;;;2.84;100.00;98813.02;110123;1276;22943;-48
2024/02/09 08:50:06;;;;;;;11.60;7.50;;;;;;;2.86;100.00;98815.80;109941;1270;22345;-50
2024/02/09 08:52:34;;;;;;;14.70;8.40;;;;;;;2.85;100.00;98811.66;109964;1258;22454;-52
2024/02/09 08:55:01;;;;;;;12.00;7.90;;;;;;;2.86;100.00;98815.96;109986;1270;22403;-50
2024/02/09 08:57:29;;;;;;;13.20;9.40;;;;;;;2.88;100.00;98811.84;109740;1276;22425;-46
2024/02/09 08:59:57;;;;;;;12.60;8.80;;;;;;;2.97;100.00;98803.13;108575;1276;22945;-52
2024/02/09 09:02:29;;;;;;;12.00;8.40;;;;;;;3.09;100.00;98803.02;109731;1275;22390;-51
2024/02/09 09:04:57;;;;;;;11.50;8.40;;;;;;;3.13;100.00;98807.52;109812;1274;22544;-47
2024/02/09 09:07:25;;;;;;;14.00;9.00;;;;;;;3.16;100.00;98816.34;109583;1270;22533;-52
2024/02/09 09:10:26;;;;;;;16.50;8.90;;;;;;;3.16;100.00;98811.17;109472;1270;22533;-52
2024/02/09 09:12:59;;;;;;;;;;;;;;;3.12;100.00;98808.89;109740;1269;23049;-52
2024/02/09 09:15:31;;;;;;;16.60;10.40;;;;;;;3.08;100.00;98807.33;109214;1270;22623;-48
2024/02/09 09:22:04;;;;;;;14.30;9.50;;;;;;;3.12;100.00;98809.75;109762;1271;22545;-48
2024/02/09 09:33:50;;;;;;;14.80;9.50;;;;;;;3.24;100.00;98822.75;109869;1276;22989;-51
2024/02/09 09:37:31;;;;;;;17.20;9.90;;;;;;;3.25;100.00;98813.83;110086;1275;22561;-48
2024/02/09 09:44:03;;;;;;;20.60;12.20;;;;;;;3.29;100.00;98819.34;109930;1270;22371;-51
2024/02/09 09:55:21;;;;;;;22.70;13.80;;;;;;;3.65;100.00;98811.94;110099;1276;22393;-51
2024/02/09 10:10:27;;;;;;;13.20;8.50;;;;;;;4.26;100.00;98800.55;110199;1276;22387;-47
2024/02/09 10:13:14;;;;;;;11.70;7.20;;;;;;;4.32;100.00;98796.24;109678;1272;22558;-47
2024/02/09 10:15:48;;;;;;;8.70;7.30;;;;;;;4.38;100.00;98802.29;110243;1275;22297;-51
2024/02/09 10:30:06;;;;;;;11.70;7.80;;;;;;;4.97;100.00;98785.00;110376;1275;22375;-48
2024/02/09 10:33:47;;;;;;;;;;;;;;;5.18;100.00;98783.06;110179;1275;22503;-48
2024/02/09 10:37:09;;;;;;;11.40;8.50;;;;;;;5.23;100.00;98781.33;108872;1276;22528;-47
2024/02/09 10:40:29;;;;;;;11.30;8.40;;;;;;;5.27;100.00;98777.34;110285;1270;22452;-48
2024/02/09 10:52:33;;;;;;;15.80;10.60;;;;;;;5.77;100.00;98780.08;110309;1270;23105;-49
2024/02/09 10:56:39;;;;;;;13.70;10.30;;;;;;;5.89;100.00;98775.36;110248;1276;22151;-52
2024/02/09 11:04:56;;;;;;;14.20;9.90;;;;;;;6.01;100.00;98784.66;110166;1267;25332;-53
2024/02/09 11:12:32;;;;;;;13.20;10.50;;;;;;;5.97;100.00;98785.89;109601;1267;22831;-54
2024/02/09 11:15:34;;;;;;;11.70;8.80;;;;;;;6.01;100.00;98783.63;110113;1270;22607;-48
2024/02/09 11:18:35;;;;;;;14.40;10.20;;;;;;;6.07;100.00;98782.55;109987;1267;22410;-54
2024/02/09 11:25:43;;;;;;;17.50;10.60;;;;;;;6.38;100.00;98794.13;109963;1267;22456;-46
2024/02/09 11:37:18;;;;;;;11.30;9.20;;;;;;;6.55;100.00;98791.59;110183;1267;22414;-54
2024/02/09 11:40:42;;;;;;;13.40;10.20;;;;;;;6.61;100.00;98798.30;110006;1270;22869;-54
2024/02/09 11:48:16;;;;;;;13.20;9.10;;;;;;;7.00;100.00;98787.21;110190;1273;22289;-55
2024/02/09 12:00:34;;;;;;;14.50;9.40;;;;;;;8.21;100.00;98779.33;110035;1270;24242;-56
2024/02/09 12:07:48;;;;;;;18.50;8.70;;;;;;;9.32;100.00;98788.83;109426;1270;23041;-57
2024/02/09 12:10:22;;;;;;;10.20;8.40;;;;;;;9.63;99.79;98787.88;109703;1270;22580;-56
2024/02/09 12:12:57;;;;;;;10.50;8.20;;;;;;;9.93;96.20;98783.94;110019;1272;23340;-62
2024/02/09 12:15:37;;;;;;;12.50;8.80;;;;;;;10.05;94.78;98785.42;109877;1272;22369;-53
2024/02/09 12:18:11;;;;;;;13.10;9.30;;;;;;;10.06;93.18;98792.19;110099;1269;22197;-56
2024/02/09 12:21:03;;;;;;;14.20;8.80;;;;;;;10.01;93.22;98797.17;110138;1275;23126;-56
2024/02/09 12:23:31;;;;;;;13.00;9.20;;;;;;;9.87;93.00;98807.74;110132;1273;22399;-55
2024/02/09 12:26:08;;;;;;;13.70;9.50;;;;;;;9.60;93.09;98807.23;110120;1270;22205;-54
2024/02/09 12:29:13;;;;;;;11.20;8.40;;;;;;;9.21;93.12;98809.38;110051;1267;23327;-55
2024/02/09 12:32:01;;;;;;;13.40;9.30;;;;;;;8.76;94.78;98817.11;109936;1269;22400;-54
2024/02/09 12:34:46;;;;;;;11.60;9.30;;;;;;;8.39;96.11;98820.59;109849;1267;22342;-54
2024/02/09 12:37:19;;;;;;;11.40;9.20;;;;;;;8.09;97.82;98823.95;109934;1270;22388;-55
2024/02/09 12:39:53;;;;;;;13.80;9.70;;;;;;;7.88;99.14;98824.59;110053;1270;23029;-55
2024/02/09 12:42:31;;;;;;;13.00;9.60;;;;;;;7.70;100.00;98820.29;110036;1267;23026;-56
2024/02/09 12:44:59;;;;;;;16.00;10.50;;;;;;;7.53;100.00;98817.70;109962;1270;22383;-54
2024/02/09 12:47:29;;;;;;;11.40;9.70;;;;;;;7.40;100.00;98819.06;110070;1269;22341;-53
2024/02/09 12:49:57;;;;;;;13.90;9.90;;;;;;;7.29;100.00;98822.81;110081;1270;23048;-54
2024/02/09 12:52:31;;;;;;;14.70;11.10;;;;;;;7.20;100.00;98830.89;110154;1269;22293;-55
2024/02/09 12:54:59;;;;;;;16.70;10.50;;;;;;;7.14;100.00;98834.59;110065;1272;23346;-52
2024/02/09 12:57:27;;;;;;;14.80;10.50;;;;;;;7.09;100.00;98843.64;110071;1270;22897;-53
2024/02/09 12:59:54;;;;;;;14.50;9.30;;;;;;;7.06;100.00;98842.96;110095;1276;23599;-54
2024/02/09 13:02:25;;;;;;;16.80;10.50;;;;;;;7.07;100.00;98846.77;110156;1275;22263;-55
2024/02/09 13:04:52;;;;;;;14.60;10.40;;;;;;;7.09;100.00;98851.45;109936;1275;22452;-55
2024/02/09 13:07:20;;;;;;;13.30;10.10;;;;;;;7.10;100.00;98855.44;110085;1276;23037;-54
2024/02/09 13:09:48;;;;;;;17.20;11.70;;;;;;;7.10;100.00;98861.33;110117;1276;22813;-54
2024/02/09 13:12:17;;;;;;;15.00;10.60;;;;;;;7.11;100.00;98867.02;109685;1275;23326;-46
2024/02/09 13:14:45;;;;;;;16.10;11.50;;;;;;;7.11;100.00;98870.16;110177;1275;22355;-46
2024/02/09 13:17:13;;;;;;;17.90;12.30;;;;;;;7.09;100.00;98872.78;110230;1275;24099;-54
2024/02/09 13:19:41;;;;;;;14.90;10.30;;;;;;;7.05;100.00;98872.28;110155;1275;22303;-46
2024/02/09 13:22:08;;;;;;;13.80;10.90;;;;;;;7.02;100.00;98872.31;110146;1276;22291;-46
2024/02/09 13:24:39;;;;;;;12.00;8.90;;;;;;;7.00;100.00;98873.54;110089;1275;22786;-47
2024/02/09 13:27:12;;;;;;;14.70;10.50;;;;;;;6.97;100.00;98878.95;110171;1267;22271;-47
2024/02/09 13:29:42;;;;;;;;;;;;;;;6.91;100.00;98872.40;110212;1276;22401;-45
2024/02/09 13:32:13;;;;;;;16.10;10.70;;;;;;;6.82;100.00;98877.33;109561;1276;22211;-47
2024/02/09 13:34:41;;;;;;;17.80;11.10;;;;;;;6.73;100.00;98867.85;109050;1276;23005;-47
2024/02/09 13:37:09;;;;;;;19.10;11.90;;;;;;;6.65;100.00;98874.84;108997;1273;22404;-46
2024/02/09 13:39:36;;;;;;;18.90;13.00;;;;;;;6.60;100.00;98878.15;110080;1267;22539;-48
2024/02/09 13:42:06;;;;;;;18.40;11.90;;;;;;;6.57;100.00;98886.16;109952;1273;22292;-46
2024/02/09 13:44:37;;;;;;;18.30;11.20;;;;;;;6.55;100.00;98887.02;109033;1276;23294;-47
2024/02/09 13:47:05;;;;;;;19.70;11.80;;;;;;;6.53;100.00;98891.90;109287;1275;22338;-45
2024/02/09 13:49:34;;;;;;;16.30;11.70;;;;;;;6.50;100.00;98886.20;109285;1275;22700;-48
2024/02/09 13:52:03;;;;;;;20.60;11.80;;;;;;;6.47;100.00;98878.94;108841;1275;22321;-54
2024/02/09 13:54:32;;;;;;;15.70;10.30;;;;;;;6.44;100.00;98878.80;110183;1271;22548;-48
2024/02/09 13:57:00;;;;;;;19.10;11.80;;;;;;;6.42;100.00;98873.60;109065;1275;22236;-47
2024/02/09 13:59:29;;;;;;;20.30;12.30;;;;;;;6.39;100.00;98876.74;110146;1276;22407;-47
2024/02/09 14:01:57;;;;;;;24.40;11.50;;;;;;;6.37;100.00;98883.48;108261;1276;22506;-46
2024/02/09 14:04:25;;;;;;;18.90;12.50;;;;;;;6.37;100.00;98888.52;108250;1276;24267;-46
2024/02/09 14:06:54;;;;;;;18.50;11.70;;;;;;;6.37;100.00;98889.73;107664;1270;22542;-55
2024/02/09 14:09:22;;;;;;;20.30;13.10;;;;;;;6.35;100.00;98885.76;107309;1276;22526;-54
2024/02/09 14:11:49;;;;;;;21.90;11.90;;;;;;;6.33;100.00;98881.10;107652;1276;25328;-47
2024/02/09 14:14:20;;;;;;;19.20;12.60;;;;;;;6.28;100.00;98885.63;108265;1276;22237;-49
2024/02/09 14:16:49;;;;;;;23.30;13.60;;;;;;;6.24;100.00;98896.90;108421;1275;22508;-46
2024/02/09 14:19:17;;;;;;;22.90;13.40;;;;;;;6.21;100.00;98900.38;108489;1275;22307;-45
2024/02/09 14:21:45;;;;;;;17.40;11.90;;;;;;;6.20;100.00;98897.61;107855;1276;25233;-47
2024/02/09 14:24:15;;;;;;;17.60;11.80;;;;;;;6.18;100.00;98894.68;107747;1275;22665;-46
2024/02/09 14:26:44;;;;;;;17.80;12.80;;;;;;;6.14;100.00;98897.30;107161;1275;23871;-46
2024/02/09 14:29:13;;;;;;;19.90;12.40;;;;;;;6.09;100.00;98904.24;107359;1259;22524;-46
2024/02/09 14:31:43;;;;;;;19.10;12.10;;;;;;;6.07;100.00;98903.20;108439;1275;24196;-45
2024/02/09 14:34:11;;;;;;;18.40;12.90;;;;;;;6.06;100.00;98905.11;107119;1276;22538;-47
2024/02/09 14:36:42;;;;;;;21.70;12.80;;;;;;;6.04;100.00;98906.69;108999;1262;22187;-54
2024/02/09 14:39:11;;;;;;;22.20;13.00;;;;;;;6.00;100.00;98911.72;108298;1276;24200;-55
2024/02/09 14:41:40;;;;;;;17.50;12.50;;;;;;;5.96;100.00;98917.44;107349;1276;22637;-55
2024/02/09 14:44:08;;;;;;;18.10;11.80;;;;;;;5.92;100.00;98923.33;107391;1276;22571;-45
2024/02/09 14:46:42;;;;;;;18.50;12.50;;;;;;;5.86;100.00;98919.34;107556;1276;22580;-52
2024/02/09 14:49:12;;;;;;;19.40;11.90;;;;;;;5.80;100.00;98915.73;108798;1276;22211;-54
2024/02/09 14:51:44;;;;;;;20.80;12.30;;;;;;;5.72;100.00;98926.13;110231;1276;22946;-46
2024/02/09 14:54:12;;;;;;;17.10;11.60;;;;;;;5.66;100.00;98935.30;108860;1276;22220;-47
2024/02/09 14:56:40;;;;;;;15.90;10.80;;;;;;;5.65;100.00;98943.27;107771;1275;22572;-47
2024/02/09 14:59:22;;;;;;;26.40;12.90;;;;;;;5.61;100.00;98950.71;107548;1270;22538;-47
2024/02/09 15:01:50;;;;;;;22.90;13.90;;;;;;;5.54;100.00;98960.40;108208;1276;22568;-57
2024/02/09 15:04:18;;;;;;;20.80;13.30;;;;;;;5.47;100.00;98967.86;107452;1275;22525;-56
2024/02/09 15:06:46;;;;;;;23.00;14.70;;;;;;;5.40;100.00;98962.32;108030;1275;22533;-46
2024/02/09 15:09:18;;;;;;;23.60;13.60;;;;;;;5.32;100.00;98955.05;107610;1274;22541;-47
2024/02/09 15:11:45;;;;;;;18.80;12.70;;;;;;;5.27;100.00;98953.85;110349;1275;22352;-46
2024/02/09 15:14:13;;;;;;;17.20;11.60;;;;;;;5.25;100.00;98959.21;108543;1275;22534;-56
2024/02/09 15:16:43;;;;;;;17.80;12.30;;;;;;;5.19;100.00;98964.92;107497;1276;22565;-54
2024/02/09 15:19:12;;;;;;;23.60;13.50;;;;;;;5.10;100.00;98977.35;109704;1276;22190;-55
2024/02/09 15:21:41;;;;;;;21.90;12.70;;;;;;;5.01;100.00;98978.91;109318;1270;23923;-47
